Time;durP1;ratioP1;P1;durP2;ratioP2;P2;SDS_P1;SDS_P2;PMS_P1;PMS_P2;Temp;Humidity;BMP_temperature;BMP_pressure;BME280_temperature;BME280_humidity;BME280_pressure;Samples;Min_cycle;Max_cycle;Signal;HPM_P1;HPM_P2
2022/09/12 00:00:10;;;;;;;20.20;17.17;;;;;;;26.72;42.71;101761.22;5054038;28;20031;-72
2022/09/12 00:02:35;;;;;;;21.33;17.40;;;;;;;26.47;43.73;101767.22;5077837;28;20487;-72
2022/09/12 00:05:01;;;;;;;23.70;18.23;;;;;;;26.60;43.31;101767.34;5072998;28;20056;-72
2022/09/12 00:07:27;;;;;;;19.92;16.65;;;;;;;26.71;43.11;101758.63;5073756;28;20038;-73
2022/09/12 00:09:52;;;;;;;25.55;17.35;;;;;;;26.57;43.53;101757.66;5090244;28;20031;-72
2022/09/12 00:12:17;;;;;;;26.23;18.10;;;;;;;25.84;44.46;101761.22;5077288;28;20047;-72
2022/09/12 00:14:43;;;;;;;23.83;17.85;;;;;;;26.72;42.77;101757.66;5070960;28;20064;-72
2022/09/12 00:17:08;;;;;;;24.00;18.98;;;;;;;26.05;44.52;101756.41;5072684;28;20029;-72
2022/09/12 00:19:34;;;;;;;23.88;17.15;;;;;;;26.34;44.14;101758.25;5092011;28;20373;-72
2022/09/12 00:21:59;;;;;;;25.88;18.13;;;;;;;25.57;44.66;101751.19;5089324;28;20395;-72
2022/09/12 00:24:24;;;;;;;21.30;17.52;;;;;;;26.40;43.33;101755.16;5064912;28;20602;-73
2022/09/12 00:26:50;;;;;;;23.67;18.38;;;;;;;26.06;44.65;101757.25;5054507;28;20526;-72
2022/09/12 00:29:17;;;;;;;24.17;17.58;;;;;;;26.65;43.05;101750.94;5073862;28;20541;-72
2022/09/12 00:31:44;;;;;;;21.40;16.85;;;;;;;26.85;42.54;101747.03;5089939;28;20036;-72
2022/09/12 00:34:10;;;;;;;22.92;17.08;;;;;;;27.09;41.85;101747.22;5073808;28;20051;-72
2022/09/12 00:36:35;;;;;;;20.92;16.40;;;;;;;26.37;42.66;101747.34;5070654;28;20069;-73
2022/09/12 00:39:02;;;;;;;21.98;16.20;;;;;;;26.48;43.00;101752.03;5072966;28;20111;-73
2022/09/12 00:41:33;;;;;;;20.80;16.38;;;;;;;26.73;42.15;101740.63;5072734;28;20391;-72
2022/09/12 00:44:02;;;;;;;20.58;15.88;;;;;;;26.73;42.33;101743.31;5064727;28;20028;-71
2022/09/12 00:46:39;;;;;;;21.92;16.58;;;;;;;26.46;42.89;101743.19;5091105;28;20103;-72
2022/09/12 00:49:12;;;;;;;22.98;16.63;;;;;;;26.44;42.72;101740.63;5079793;28;20035;-72
2022/09/12 00:51:42;;;;;;;21.25;15.95;;;;;;;26.37;42.10;101739.28;5090664;28;20035;-73
2022/09/12 00:54:13;;;;;;;20.92;16.00;;;;;;;26.46;42.18;101733.38;5085337;28;20028;-73
2022/09/12 00:56:42;;;;;;;19.90;14.63;;;;;;;26.55;42.11;101734.59;5075383;28;20414;-72
2022/09/12 00:59:20;;;;;;;21.10;15.88;;;;;;;26.62;42.06;101733.22;5076138;28;20033;-72
2022/09/12 01:01:48;;;;;;;21.15;15.65;;;;;;;26.56;41.98;101734.47;5053237;28;20028;-73
2022/09/12 01:04:15;;;;;;;20.10;15.60;;;;;;;26.91;40.84;101734.06;5081371;28;20553;-72
2022/09/12 01:06:42;;;;;;;21.48;15.55;;;;;;;26.81;41.36;101722.22;5094842;28;20055;-73
2022/09/12 01:09:13;;;;;;;21.23;16.45;;;;;;;26.58;41.44;101723.66;5061828;28;20029;-72
2022/09/12 01:11:39;;;;;;;18.42;14.95;;;;;;;26.40;42.18;101717.66;5079611;28;20604;-72
2022/09/12 01:14:06;;;;;;;22.15;16.15;;;;;;;26.11;42.28;101723.00;5090001;28;20463;-72
2022/09/12 01:16:35;;;;;;;22.67;15.90;;;;;;;25.67;43.33;101724.72;5056807;28;20396;-72
2022/09/12 01:19:36;;;;;;;20.40;15.73;;;;;;;26.49;42.10;101717.06;5074342;28;20064;-72
2022/09/12 01:22:01;;;;;;;21.05;16.33;;;;;;;25.84;43.35;101720.19;4992999;28;20177;-72
2022/09/12 01:25:04;;;;;;;20.42;15.70;;;;;;;25.81;43.19;101721.22;5063719;28;20523;-73
2022/09/12 01:27:40;;;;;;;21.38;16.73;;;;;;;25.49;43.79;101716.00;5092503;28;20024;-72
2022/09/12 01:30:30;;;;;;;30.85;15.25;;;;;;;26.14;42.77;101712.09;5074192;28;20033;-73
2022/09/12 01:32:58;;;;;;;21.65;16.10;;;;;;;26.31;42.06;101712.88;5087888;28;20097;-72
2022/09/12 01:35:45;;;;;;;23.35;16.35;;;;;;;26.33;42.11;101708.28;5082405;28;20042;-72
2022/09/12 01:38:35;;;;;;;19.83;15.32;;;;;;;26.44;42.13;101719.19;5074801;28;20033;-72
2022/09/12 01:41:13;;;;;;;22.13;14.43;;;;;;;26.60;41.66;101708.34;5077670;28;20031;-72
2022/09/12 01:44:03;;;;;;;22.05;16.23;;;;;;;26.51;42.00;101712.47;5074646;28;20025;-73
2022/09/12 01:46:39;;;;;;;33.30;15.55;;;;;;;26.47;41.67;101708.25;5070547;28;20557;-72
2022/09/12 01:49:20;;;;;;;18.40;13.93;;;;;;;26.54;41.89;101698.88;5075844;28;20039;-72
2022/09/12 01:51:56;;;;;;;20.80;14.70;;;;;;;26.66;41.22;101702.59;5094826;28;20149;-73
2022/09/12 01:54:28;;;;;;;20.55;13.98;;;;;;;26.75;41.31;101695.81;5079052;28;20547;-73
2022/09/12 01:56:58;;;;;;;21.88;15.30;;;;;;;26.37;41.82;101685.69;5055019;28;20036;-73
2022/09/12 01:59:39;;;;;;;23.98;16.90;;;;;;;26.40;41.79;101685.50;5074782;28;20028;-72
2022/09/12 02:02:13;;;;;;;19.23;14.90;;;;;;;26.04;42.35;101694.91;5074191;28;20032;-72
2022/09/12 02:04:52;;;;;;;18.38;13.88;;;;;;;26.34;42.11;101680.53;5054900;28;20032;-72
2022/09/12 02:07:22;;;;;;;20.67;15.80;;;;;;;26.23;42.31;101668.66;5066955;28;20043;-72
2022/09/12 02:09:58;;;;;;;19.42;15.63;;;;;;;26.30;41.49;101668.28;5092264;28;20484;-72
2022/09/12 02:12:34;;;;;;;21.95;15.50;;;;;;;26.43;41.63;101674.56;5091821;28;20024;-73
2022/09/12 02:15:06;;;;;;;21.63;15.45;;;;;;;26.79;40.85;101670.53;5071134;28;20039;-72
2022/09/12 02:17:37;;;;;;;21.13;15.55;;;;;;;26.52;41.31;101668.63;5083786;28;20438;-72
2022/09/12 02:20:15;;;;;;;20.98;15.65;;;;;;;26.23;41.80;101668.66;5076144;28;20038;-72
2022/09/12 02:22:44;;;;;;;22.63;15.57;;;;;;;26.72;40.87;101661.13;5094216;28;20597;-73
2022/09/12 02:25:13;;;;;;;21.02;15.43;;;;;;;26.23;42.07;101663.31;5078166;28;20033;-73
2022/09/12 02:27:47;;;;;;;23.15;16.83;;;;;;;25.53;43.45;101668.50;5083091;28;20045;-72
2022/09/12 02:30:16;;;;;;;22.80;14.80;;;;;;;26.24;41.97;101662.38;5091511;28;20035;-72
2022/09/12 02:32:48;;;;;;;23.27;16.77;;;;;;;26.24;41.83;101659.69;5074942;28;20446;-73
2022/09/12 02:35:42;;;;;;;24.45;16.45;;;;;;;26.16;41.91;101664.66;5074515;28;20534;-72
2022/09/12 02:38:26;;;;;;;21.77;17.17;;;;;;;26.49;40.93;101658.13;5091842;28;20035;-72
2022/09/12 02:40:52;;;;;;;23.85;16.58;;;;;;;26.05;42.11;101659.13;5093918;28;20043;-72
2022/09/12 02:43:17;;;;;;;27.48;17.15;;;;;;;24.85;44.11;101654.59;5075418;28;20016;-73
2022/09/12 02:45:43;;;;;;;25.45;16.88;;;;;;;24.89;45.09;101653.47;5057811;28;20419;-72
2022/09/12 02:48:27;;;;;;;26.17;17.15;;;;;;;25.23;44.91;101662.16;5075304;28;20036;-72
2022/09/12 02:50:53;;;;;;;24.20;16.55;;;;;;;24.43;45.99;101656.03;5093503;28;20047;-72
2022/09/12 02:53:19;;;;;;;28.83;17.95;;;;;;;25.15;45.00;101661.75;5073583;28;20036;-72
2022/09/12 02:55:44;;;;;;;21.05;16.27;;;;;;;25.78;43.74;101656.31;5066810;28;20024;-73
2022/09/12 02:58:16;;;;;;;26.52;18.05;;;;;;;25.62;44.10;101656.38;5074236;28;20024;-72
2022/09/12 03:01:07;;;;;;;27.13;18.27;;;;;;;25.28;44.38;101650.34;5093154;28;20028;-72
2022/09/12 03:03:59;;;;;;;27.00;17.95;;;;;;;25.10;45.02;101645.16;5092367;28;20024;-72
2022/09/12 03:06:43;;;;;;;23.95;18.25;;;;;;;25.33;44.70;101642.94;5063472;28;20036;-72
2022/09/12 03:09:24;;;;;;;26.90;18.08;;;;;;;25.65;43.32;101640.13;5072644;28;20040;-72
2022/09/12 03:12:10;;;;;;;28.95;18.75;;;;;;;25.59;44.06;101635.16;5079456;28;20034;-73
2022/09/12 03:14:38;;;;;;;24.73;18.85;;;;;;;25.44;44.34;101637.78;5088167;28;20032;-72
2022/09/12 03:17:19;;;;;;;27.15;18.52;;;;;;;25.86;43.24;101636.13;5092504;28;20027;-72
2022/09/12 03:20:22;;;;;;;28.45;18.27;;;;;;;25.50;43.95;101629.41;5092955;28;20024;-72
2022/09/12 03:22:59;;;;;;;26.42;18.50;;;;;;;25.87;43.21;101618.22;5086255;28;20035;-72
2022/09/12 03:25:34;;;;;;;27.05;18.77;;;;;;;26.44;42.09;101617.34;5053944;28;20444;-73
2022/09/12 03:28:06;;;;;;;27.38;18.77;;;;;;;25.91;42.94;101612.59;5057966;28;20020;-72
2022/09/12 03:30:42;;;;;;;27.90;18.33;;;;;;;26.61;42.05;101612.69;5092605;28;20042;-72
2022/09/12 03:33:20;;;;;;;28.20;18.92;;;;;;;26.05;42.94;101611.78;5072903;28;20020;-72
2022/09/12 03:35:46;;;;;;;27.02;19.30;;;;;;;26.19;42.71;101608.22;5088778;28;20035;-72
2022/09/12 03:38:12;;;;;;;26.20;18.17;;;;;;;26.42;41.84;101608.56;5059396;28;20480;-73
2022/09/12 03:40:38;;;;;;;25.60;17.98;;;;;;;26.26;41.91;101614.03;5072180;28;20029;-72
2022/09/12 03:43:06;;;;;;;23.75;17.48;;;;;;;26.14;42.66;101613.00;5089228;28;20028;-72
2022/09/12 03:45:32;;;;;;;27.08;17.75;;;;;;;26.24;42.32;101614.13;5091673;28;20035;-72
2022/09/12 03:47:58;;;;;;;25.98;18.58;;;;;;;26.77;41.37;101618.78;5060549;28;20045;-72
2022/09/12 03:50:23;;;;;;;25.52;18.92;;;;;;;26.64;41.28;101612.50;5051542;28;20028;-72
2022/09/12 03:52:48;;;;;;;25.20;19.05;;;;;;;26.41;41.86;101617.56;5051675;28;20048;-72
2022/09/12 03:55:14;;;;;;;26.58;18.92;;;;;;;26.20;42.37;101615.28;5033293;28;20032;-72
2022/09/12 03:57:39;;;;;;;27.10;18.65;;;;;;;26.04;42.41;101615.41;5070429;28;20021;-72
2022/09/12 04:00:07;;;;;;;32.45;18.95;;;;;;;25.82;42.92;101610.50;5069718;28;20031;-72
2022/09/12 04:02:33;;;;;;;32.83;20.10;;;;;;;25.75;43.29;101603.81;5050629;28;20370;-72
2022/09/12 04:04:58;;;;;;;38.70;19.35;;;;;;;26.08;42.61;101610.72;5033903;28;20078;-72
2022/09/12 04:07:24;;;;;;;29.95;19.35;;;;;;;25.74;43.52;101607.44;5054501;28;20020;-72
2022/09/12 04:09:49;;;;;;;28.55;19.98;;;;;;;26.27;42.42;101604.16;5071073;28;20079;-73
2022/09/12 04:12:14;;;;;;;27.00;18.67;;;;;;;25.81;43.34;101602.56;5052462;28;20499;-72
2022/09/12 04:14:40;;;;;;;31.20;19.38;;;;;;;25.93;43.05;101595.59;5068502;28;20025;-72
2022/09/12 04:17:06;;;;;;;27.85;19.35;;;;;;;26.08;42.56;101595.50;5070206;28;20384;-72
2022/09/12 04:19:31;;;;;;;27.17;19.65;;;;;;;25.63;43.98;101604.56;5033335;28;20487;-72
2022/09/12 04:21:56;;;;;;;32.03;19.92;;;;;;;25.62;44.20;101609.03;5051399;28;20028;-72
2022/09/12 04:24:22;;;;;;;28.27;20.02;;;;;;;24.73;45.98;101600.00;5037089;28;20032;-72
2022/09/12 04:26:47;;;;;;;37.10;19.83;;;;;;;25.53;44.31;101605.13;5049786;28;20065;-72
2022/09/12 04:29:16;;;;;;;26.77;19.75;;;;;;;26.10;42.64;101598.06;5071606;28;20032;-72
2022/09/12 04:31:41;;;;;;;41.38;19.75;;;;;;;25.60;43.84;101607.44;5050205;28;20264;-73
2022/09/12 04:34:07;;;;;;;29.10;18.30;;;;;;;26.48;41.97;101600.09;5068978;28;20111;-72
2022/09/12 04:36:33;;;;;;;29.45;18.73;;;;;;;26.11;42.24;101593.59;5069538;28;20024;-71
2022/09/12 04:39:00;;;;;;;82.88;13.65;;;;;;;26.37;42.17;101599.94;5036361;28;20419;-72
2022/09/12 04:41:29;;;;;;;23.98;10.73;;;;;;;26.50;41.62;101600.88;5051030;28;20025;-72
2022/09/12 04:43:57;;;;;;;18.17;9.55;;;;;;;26.31;42.05;101594.97;5060476;28;20029;-73
2022/09/12 04:46:24;;;;;;;24.20;10.88;;;;;;;26.21;42.08;101600.94;5038059;28;20498;-73
2022/09/12 04:48:50;;;;;;;19.60;9.68;;;;;;;25.51;43.55;101601.72;5051664;28;20044;-73
2022/09/12 04:51:27;;;;;;;21.98;10.15;;;;;;;25.94;42.68;101597.28;5073769;28;20093;-72
2022/09/12 04:53:56;;;;;;;22.52;10.70;;;;;;;25.72;43.10;101604.00;5070811;28;20032;-72
2022/09/12 04:56:22;;;;;;;25.63;11.05;;;;;;;25.55;43.76;101607.72;5052369;28;20133;-72
2022/09/12 04:58:48;;;;;;;20.98;10.20;;;;;;;25.83;42.72;101596.16;5076983;28;20039;-72
2022/09/12 05:01:16;;;;;;;21.88;10.60;;;;;;;26.24;41.93;101600.75;5091406;28;20514;-72
2022/09/12 05:03:43;;;;;;;26.30;11.60;;;;;;;25.95;42.44;101604.38;5091504;28;20051;-72
2022/09/12 05:06:11;;;;;;;24.60;11.20;;;;;;;25.61;43.46;101606.47;5057922;28;20021;-73
2022/09/12 05:08:37;;;;;;;21.52;11.48;;;;;;;25.86;42.58;101601.31;5071335;28;20032;-73
2022/09/12 05:11:04;;;;;;;20.58;11.13;;;;;;;25.90;42.61;101602.00;5071410;28;20025;-72
2022/09/12 05:13:31;;;;;;;22.38;11.20;;;;;;;25.69;43.09;101601.50;5071759;28;20099;-72
2022/09/12 05:15:58;;;;;;;25.75;12.05;;;;;;;25.46;43.69;101603.78;5052174;28;20411;-72
2022/09/12 05:18:25;;;;;;;26.55;12.45;;;;;;;25.61;43.17;101617.19;5071234;28;20040;-73
2022/09/12 05:20:51;;;;;;;23.45;10.55;;;;;;;25.71;42.76;101603.13;5078621;28;20035;-72
2022/09/12 05:23:16;;;;;;;24.00;11.38;;;;;;;25.50;43.13;101604.44;5073349;28;20024;-73
2022/09/12 05:25:52;;;;;;;26.88;13.15;;;;;;;25.32;43.78;101611.75;5064912;28;20086;-72
2022/09/12 05:28:21;;;;;;;26.77;12.10;;;;;;;25.72;42.58;101598.66;5069408;28;20119;-72
2022/09/12 05:30:47;;;;;;;26.67;11.90;;;;;;;25.37;43.50;101599.00;5088872;28;20067;-72
2022/09/12 05:33:13;;;;;;;24.88;11.90;;;;;;;25.30;43.86;101593.13;5053126;28;20052;-73
2022/09/12 05:35:39;;;;;;;24.23;11.52;;;;;;;25.22;43.83;101590.03;5050796;28;20032;-72
2022/09/12 05:38:06;;;;;;;22.17;11.38;;;;;;;25.59;43.10;101585.16;5079172;28;20074;-72
2022/09/12 05:40:32;;;;;;;20.10;11.63;;;;;;;25.29;43.36;101590.53;5087299;28;20032;-72
2022/09/12 05:42:58;;;;;;;24.20;12.15;;;;;;;25.41;43.60;101584.47;5072367;28;20024;-72
2022/09/12 05:45:23;;;;;;;19.80;10.80;;;;;;;25.78;42.56;101581.34;5067758;28;20064;-72
2022/09/12 05:47:49;;;;;;;22.73;10.95;;;;;;;25.37;43.62;101585.63;5063716;28;20142;-73
2022/09/12 05:50:14;;;;;;;27.00;12.70;;;;;;;25.61;43.15;101574.34;5075886;28;20046;-72
2022/09/12 05:52:40;;;;;;;29.00;12.32;;;;;;;25.61;43.14;101574.34;5094868;28;20379;-72
2022/09/12 05:55:06;;;;;;;28.88;11.88;;;;;;;25.52;43.43;101587.34;5090884;28;20035;-72
2022/09/12 05:57:32;;;;;;;29.02;12.27;;;;;;;25.68;43.29;101581.91;5066308;28;20025;-73
2022/09/12 05:59:58;;;;;;;21.55;11.82;;;;;;;24.95;44.67;101593.44;5073964;28;20020;-72
2022/09/12 06:02:24;;;;;;;22.50;10.88;;;;;;;25.16;44.51;101599.28;5074931;28;20035;-72
2022/09/12 06:04:49;;;;;;;30.40;12.18;;;;;;;25.20;44.30;101598.16;5083482;28;20085;-72
2022/09/12 06:07:14;;;;;;;24.63;12.68;;;;;;;25.64;43.15;101600.94;5078777;28;20100;-72
2022/09/12 06:09:40;;;;;;;23.95;11.70;;;;;;;25.24;43.97;101598.84;5062577;28;20519;-73
2022/09/12 06:12:06;;;;;;;29.48;12.43;;;;;;;25.26;44.23;101606.78;5073922;28;20029;-72
2022/09/12 06:14:32;;;;;;;31.98;12.95;;;;;;;25.69;43.13;101604.19;5087403;28;20046;-72
2022/09/12 06:16:57;;;;;;;27.38;12.48;;;;;;;25.69;43.25;101598.81;5060604;28;20103;-72
2022/09/12 06:19:24;;;;;;;23.48;11.45;;;;;;;25.94;43.03;101597.28;5073289;28;20070;-72
2022/09/12 06:21:50;;;;;;;27.13;13.57;;;;;;;25.28;44.10;101597.72;5055026;28;20373;-72
2022/09/12 06:24:17;;;;;;;33.38;23.35;;;;;;;25.34;44.19;101593.84;5081127;28;20024;-72
2022/09/12 06:26:42;;;;;;;35.30;23.83;;;;;;;25.61;43.78;101595.75;5093778;28;20028;-72
2022/09/12 06:29:10;;;;;;;39.13;24.70;;;;;;;25.03;45.19;101584.94;5092723;28;20038;-72
2022/09/12 06:31:37;;;;;;;37.20;24.17;;;;;;;25.95;43.51;101582.94;5081116;28;20142;-72
2022/09/12 06:34:08;;;;;;;33.13;22.73;;;;;;;25.88;42.99;101578.00;5053498;28;20507;-73
2022/09/12 06:36:42;;;;;;;34.50;23.48;;;;;;;25.11;45.02;101577.31;5077304;28;20472;-73
2022/09/12 06:39:11;;;;;;;42.53;26.10;;;;;;;25.52;44.65;101573.97;5042743;28;20045;-72
2022/09/12 06:41:37;;;;;;;33.33;23.38;;;;;;;25.89;43.61;101579.69;5069692;28;20039;-73
2022/09/12 06:44:03;;;;;;;33.97;22.48;;;;;;;26.09;43.42;101585.66;5072501;28;20028;-72
2022/09/12 06:46:30;;;;;;;36.33;24.30;;;;;;;26.26;42.89;101575.69;5056242;28;20034;-72
2022/09/12 06:48:56;;;;;;;40.25;23.08;;;;;;;26.65;42.19;101582.91;5053663;28;20152;-73
2022/09/12 06:51:21;;;;;;;35.67;23.17;;;;;;;26.27;42.95;101572.91;5056253;28;20019;-72
2022/09/12 06:53:48;;;;;;;33.05;22.67;;;;;;;26.59;43.17;101577.97;5088000;28;20027;-72
2022/09/12 06:56:16;;;;;;;34.92;22.88;;;;;;;25.93;44.47;101584.88;5079125;28;20033;-72
2022/09/12 06:58:42;;;;;;;30.67;21.35;;;;;;;26.10;44.19;101576.66;5072028;28;20024;-72
2022/09/12 07:01:14;;;;;;;31.05;21.35;;;;;;;26.75;42.83;101584.03;5072444;28;20387;-72
2022/09/12 07:03:40;;;;;;;35.65;23.13;;;;;;;26.77;42.75;101591.97;5090034;28;20032;-73
2022/09/12 07:06:11;;;;;;;30.75;22.33;;;;;;;26.47;43.46;101584.97;5072188;28;20012;-72
2022/09/12 07:08:38;;;;;;;31.65;22.08;;;;;;;27.36;41.95;101586.22;5082989;28;20035;-72
2022/09/12 07:11:12;;;;;;;30.25;21.85;;;;;;;25.93;44.25;101595.59;5073302;28;20035;-73
2022/09/12 07:13:39;;;;;;;29.80;20.80;;;;;;;26.56;43.11;101595.09;5072832;28;21499;-72
2022/09/12 07:16:05;;;;;;;36.38;22.67;;;;;;;26.82;42.64;101592.53;5084113;28;20032;-72
2022/09/12 07:18:31;;;;;;;32.45;21.95;;;;;;;26.63;43.27;101592.03;5081253;28;20147;-72
2022/09/12 07:21:01;;;;;;;36.70;21.70;;;;;;;26.40;43.71;101589.03;5071074;28;20560;-73
2022/09/12 07:23:27;;;;;;;28.75;21.08;;;;;;;26.54;43.81;101593.47;5078839;28;20031;-72
2022/09/12 07:25:56;;;;;;;30.92;21.67;;;;;;;27.20;42.36;101594.47;5060790;28;20472;-72
2022/09/12 07:28:26;;;;;;;33.88;21.70;;;;;;;26.99;43.78;101601.28;5070839;28;20035;-72
2022/09/12 07:30:52;;;;;;;30.38;22.15;;;;;;;28.83;40.61;101597.19;5071256;28;20667;-72
2022/09/12 07:33:23;;;;;;;27.27;20.02;;;;;;;30.12;37.25;101590.81;5087871;28;20491;-71
2022/09/12 07:35:48;;;;;;;25.77;18.42;;;;;;;32.49;34.08;101590.31;5059437;28;20033;-72
2022/09/12 07:38:15;;;;;;;26.45;18.08;;;;;;;33.31;32.89;101593.59;5080406;28;20369;-72
2022/09/12 07:40:40;;;;;;;26.27;17.73;;;;;;;32.50;32.64;101585.78;5080917;28;20020;-73
2022/09/12 07:43:06;;;;;;;24.25;17.83;;;;;;;34.05;30.98;101599.19;5073275;28;20534;-72
2022/09/12 07:45:31;;;;;;;22.98;17.33;;;;;;;33.20;30.79;101600.00;5085822;28;20032;-72
2022/09/12 07:47:57;;;;;;;24.17;18.13;;;;;;;33.77;30.58;101597.34;5068727;28;20452;-72
2022/09/12 07:50:22;;;;;;;23.83;17.13;;;;;;;34.79;29.40;101589.13;5056666;28;20393;-72
2022/09/12 07:52:48;;;;;;;21.73;17.20;;;;;;;34.24;29.85;101593.63;5059664;28;20051;-72
2022/09/12 07:55:13;;;;;;;22.73;16.80;;;;;;;35.27;28.72;101590.50;5051267;28;20036;-72
2022/09/12 07:57:39;;;;;;;19.77;15.88;;;;;;;34.95;29.12;101592.00;5062884;28;20043;-73
2022/09/12 08:00:05;;;;;;;22.08;16.48;;;;;;;33.79;29.63;101602.59;5032710;28;20027;-72
2022/09/12 08:02:30;;;;;;;22.30;16.30;;;;;;;34.05;29.50;101599.19;5040505;28;20488;-72
2022/09/12 08:04:56;;;;;;;22.73;16.65;;;;;;;32.26;33.38;101590.59;5036024;28;20079;-72
2022/09/12 08:07:21;;;;;;;25.13;18.48;;;;;;;32.89;30.99;101597.50;5061412;28;20029;-72
2022/09/12 08:09:47;;;;;;;27.42;17.75;;;;;;;31.81;32.65;101596.41;5058368;28;20036;-72
2022/09/12 08:12:12;;;;;;;21.55;18.08;;;;;;;32.96;31.68;101603.16;5046876;28;20057;-72
2022/09/12 08:14:37;;;;;;;27.95;17.45;;;;;;;30.94;34.22;101602.94;5055719;28;20029;-72
2022/09/12 08:17:03;;;;;;;27.00;18.77;;;;;;;31.42;33.32;101596.19;5066514;28;20073;-72
2022/09/12 08:19:28;;;;;;;24.50;17.20;;;;;;;31.20;34.89;101599.91;5063326;28;21176;-72
2022/09/12 08:21:54;;;;;;;22.38;16.75;;;;;;;31.68;34.02;101599.34;5068502;28;20024;-73
2022/09/12 08:24:19;;;;;;;22.98;17.58;;;;;;;30.75;35.26;101598.28;5053273;28;20020;-73
2022/09/12 08:26:44;;;;;;;27.73;18.08;;;;;;;31.42;34.29;101601.59;5071024;28;20448;-73
2022/09/12 08:29:10;;;;;;;23.45;17.02;;;;;;;30.91;34.33;101603.22;5070146;28;20024;-72
2022/09/12 08:31:36;;;;;;;25.67;16.98;;;;;;;30.97;35.00;101602.69;5069583;28;20158;-72
2022/09/12 08:34:05;;;;;;;25.40;17.15;;;;;;;30.60;36.23;101595.84;5048792;28;20040;-73
2022/09/12 08:36:31;;;;;;;21.77;16.80;;;;;;;31.40;34.85;101598.19;5050872;28;20135;-73
2022/09/12 08:39:02;;;;;;;23.60;15.60;;;;;;;31.66;34.07;101592.38;5062959;28;20502;-72
2022/09/12 08:41:52;;;;;;;23.63;16.20;;;;;;;31.72;34.04;101591.81;5058917;28;20550;-72
2022/09/12 08:44:35;;;;;;;22.67;15.68;;;;;;;32.07;33.95;101590.53;5051337;28;20032;-73
2022/09/12 08:47:10;;;;;;;21.27;15.63;;;;;;;32.84;32.57;101588.94;5062997;28;20062;-73
2022/09/12 08:49:47;;;;;;;20.83;15.45;;;;;;;32.31;33.53;101587.47;5068382;28;20028;-72
2022/09/12 08:52:44;;;;;;;21.23;14.27;;;;;;;31.97;34.64;101585.94;5062541;28;20149;-72
2022/09/12 08:55:34;;;;;;;17.88;14.02;;;;;;;32.35;33.56;101588.06;5060541;28;20037;-73
2022/09/12 08:58:10;;;;;;;19.02;13.55;;;;;;;31.77;34.40;101589.56;5036261;28;20519;-73
2022/09/12 09:00:42;;;;;;;17.13;11.38;;;;;;;31.32;34.24;101590.72;5032689;28;20021;-73
2022/09/12 09:03:28;;;;;;;15.98;10.02;;;;;;;28.60;38.06;101591.72;5071141;28;20104;-73
2022/09/12 09:06:07;;;;;;;16.67;11.57;;;;;;;29.05;38.59;101600.97;5070620;28;20028;-72
2022/09/12 09:09:14;;;;;;;15.25;11.50;;;;;;;31.54;34.19;101589.72;5068644;28;20025;-72
2022/09/12 09:11:42;;;;;;;19.27;11.68;;;;;;;30.62;35.50;101587.63;4980996;28;20463;-72
2022/09/12 09:14:47;;;;;;;15.45;11.77;;;;;;;31.36;34.60;101585.94;5041299;28;20028;-72
2022/09/12 09:17:48;;;;;;;17.58;11.93;;;;;;;30.74;34.89;101580.38;5051847;28;20500;-72
2022/09/12 09:20:22;;;;;;;15.73;11.23;;;;;;;30.93;34.85;101571.56;5052753;28;20124;-73
2022/09/12 09:23:11;;;;;;;16.27;10.45;;;;;;;31.38;33.87;101578.53;5052453;28;20044;-72
2022/09/12 09:26:06;;;;;;;11.52;9.55;;;;;;;31.40;33.46;101579.28;5059914;28;20057;-73
2022/09/12 09:28:44;;;;;;;14.48;10.10;;;;;;;31.36;34.35;101575.97;5061993;28;20032;-73
2022/09/12 09:31:21;;;;;;;14.15;9.20;;;;;;;30.66;34.92;101572.06;5074727;28;20028;-72
2022/09/12 09:33:53;;;;;;;13.70;9.10;;;;;;;30.50;35.15;101565.25;5045717;28;20032;-72
2022/09/12 09:36:28;;;;;;;12.13;10.15;;;;;;;30.02;36.53;101573.66;5056974;28;20488;-72
2022/09/12 09:39:00;;;;;;;15.70;10.15;;;;;;;31.49;33.62;101569.50;5054769;28;20059;-72
2022/09/12 09:41:29;;;;;;;13.10;9.35;;;;;;;29.98;35.63;101556.91;5053960;28;20126;-73
2022/09/12 09:43:56;;;;;;;11.52;8.35;;;;;;;31.09;34.27;101557.63;5058993;28;20042;-73
2022/09/12 09:46:21;;;;;;;13.95;8.82;;;;;;;31.45;33.78;101552.72;5057986;28;20522;-73
2022/09/12 09:48:48;;;;;;;10.82;8.38;;;;;;;32.03;33.00;101545.84;5056381;28;20037;-72
2022/09/12 09:51:25;;;;;;;13.07;8.00;;;;;;;29.84;35.29;101547.22;5066620;28;20032;-72
2022/09/12 09:54:00;;;;;;;7.57;5.13;;;;;;;29.73;35.18;101533.75;5067464;28;20044;-73
2022/09/12 09:56:39;;;;;;;6.00;4.95;;;;;;;30.99;33.35;101532.41;5073148;28;20039;-73
2022/09/12 09:59:14;;;;;;;7.03;5.78;;;;;;;30.84;33.76;101532.72;5056167;28;20182;-73
2022/09/12 10:01:54;;;;;;;6.05;5.45;;;;;;;31.28;32.43;101528.06;5058448;28;20043;-72
2022/09/12 10:04:25;;;;;;;6.22;4.45;;;;;;;31.46;32.77;101532.81;5042795;28;20419;-73
2022/09/12 10:06:53;;;;;;;6.47;4.90;;;;;;;31.10;32.62;101524.25;5055810;28;20132;-72
2022/09/12 10:09:27;;;;;;;6.13;4.43;;;;;;;31.72;32.34;101521.56;5039829;28;20578;-72
2022/09/12 10:11:54;;;;;;;8.98;4.65;;;;;;;30.23;34.58;101522.56;5036051;28;20025;-72
2022/09/12 10:14:33;;;;;;;9.77;4.40;;;;;;;30.98;33.39;101519.88;5035314;28;20024;-72
2022/09/12 10:17:00;;;;;;;5.30;4.25;;;;;;;30.79;33.41;101514.22;5067442;28;20031;-73
2022/09/12 10:19:34;;;;;;;6.20;4.10;;;;;;;30.44;34.07;101514.53;5050553;28;20472;-72
2022/09/12 10:22:02;;;;;;;6.50;4.05;;;;;;;31.22;32.92;101514.25;5071111;28;20028;-71
2022/09/12 10:24:34;;;;;;;7.47;3.97;;;;;;;30.61;33.33;101505.88;5068199;28;20032;-71
2022/09/12 10:27:22;;;;;;;7.05;4.32;;;;;;;31.25;33.09;101504.00;5072414;28;20032;-71
2022/09/12 10:29:52;;;;;;;9.43;4.38;;;;;;;32.38;31.78;101502.06;5046069;28;20032;-71
2022/09/12 10:32:27;;;;;;;6.90;3.55;;;;;;;30.88;32.95;101504.47;5035093;28;20016;-71
2022/09/12 10:34:57;;;;;;;5.00;4.50;;;;;;;31.17;32.20;101494.88;5038054;28;20435;-71
2022/09/12 10:37:31;;;;;;;6.15;4.20;;;;;;;32.64;30.42;101491.53;5052023;28;20079;-72
2022/09/12 10:39:58;;;;;;;4.93;3.80;;;;;;;31.53;31.22;101485.38;5045957;28;20149;-71
2022/09/12 10:42:42;;;;;;;4.57;4.00;;;;;;;32.51;29.70;101490.97;5052174;28;20102;-71
2022/09/12 10:45:17;;;;;;;6.05;4.78;;;;;;;32.85;30.08;101487.81;5068392;28;20028;-71
2022/09/12 10:47:42;;;;;;;5.30;4.35;;;;;;;32.04;31.01;101498.88;5043916;28;20056;-71
2022/09/12 10:50:25;;;;;;;8.85;6.25;;;;;;;31.99;31.23;101495.75;5054249;28;20455;-71
2022/09/12 10:52:50;;;;;;;;;;;;;;;32.29;31.42;101506.47;5074998;28;20024;-72
2022/09/12 10:55:16;;;;;;;8.07;6.32;;;;;;;31.93;31.54;101492.63;5090642;28;20326;-71
2022/09/12 10:58:03;;;;;;;8.48;5.80;;;;;;;31.77;31.26;101495.00;5089251;28;20027;-72
2022/09/12 11:00:36;;;;;;;12.23;6.03;;;;;;;30.71;33.21;101499.69;5075883;28;20032;-71
2022/09/12 11:03:14;;;;;;;8.98;5.05;;;;;;;31.20;32.06;101500.88;5073892;28;20024;-71
2022/09/12 11:05:45;;;;;;;8.98;6.00;;;;;;;31.32;32.39;101487.28;5075125;28;20174;-72
2022/09/12 11:08:33;;;;;;;5.93;4.88;;;;;;;32.29;30.52;101495.66;5057795;28;20016;-71
2022/09/12 11:11:03;;;;;;;7.90;4.97;;;;;;;33.13;29.93;101501.41;5072112;28;20043;-72
2022/09/12 11:13:43;;;;;;;5.93;5.00;;;;;;;32.75;29.77;101497.78;5066207;28;20032;-71
2022/09/12 11:16:14;;;;;;;7.75;5.35;;;;;;;33.38;29.19;101483.66;5090534;28;20036;-71
2022/09/12 11:18:41;;;;;;;11.05;5.95;;;;;;;32.45;29.98;101487.00;5071392;28;20107;-71
2022/09/12 11:21:25;;;;;;;6.20;4.65;;;;;;;33.40;28.72;101486.22;5078254;28;20026;-72
2022/09/12 11:24:17;;;;;;;6.05;4.55;;;;;;;33.48;28.60;101478.19;5087271;28;20085;-71
2022/09/12 11:27:04;;;;;;;7.45;4.85;;;;;;;33.64;28.51;101472.13;5069008;28;20038;-74
2022/09/12 11:29:49;;;;;;;6.75;4.70;;;;;;;33.95;27.53;101475.38;5073654;28;20036;-71